Chrisanthi — SX7108 — position and weather

sailwx.info

Track history (hours):
 
Tides and Currents Weather Stations Pressure Air Temp Water Temp Dewpoint Dewpoint Depression Visibility Wind Speed Wind Dir Waves Ship Positions

Chrisanthi

Last reported at 2017-Oct-05 12:41 UTC. Time now 2017-Oct-18 15:05 UTC.
Position N 37°57' E 023°33'.
Warning: this ship's position is 13 days out of date.

Length 56 m; draft 3.9 m.

Type: Ship (hazmat cat A). MMSI: 237009100.

Date/timePositionNaut miles runAvg speedWind from/ knotsBaromVisibWave heightAir tempDewpointWater temp
2017-Oct-05 12:41N 37°57' E 023°33'0 0.4
2017-Oct-05 12:30N 37°57' E 023°33'0 0.1
2017-Oct-05 12:00N 37°57' E 023°33'0 0.0
2017-Oct-05 11:30N 37°57' E 023°33'0 0.0
2017-Oct-05 11:00N 37°57' E 023°33'0 0.1
2017-Oct-05 10:30N 37°57' E 023°33'0 0.0
2017-Oct-05 10:00N 37°57' E 023°33'0 0.2
2017-Oct-05 09:30N 37°57' E 023°33'0 0.0
2017-Oct-05 09:00N 37°57' E 023°33'0 0.0
2017-Oct-05 08:30N 37°57' E 023°33'0 0.0
2017-Oct-05 08:00N 37°57' E 023°33'0 0.0
2017-Oct-05 07:30N 37°57' E 023°33'0 0.0
2017-Oct-05 07:00N 37°57' E 023°33'0 0.0
2017-Oct-05 06:30N 37°57' E 023°33'0 0.0
2017-Oct-05 06:00N 37°57' E 023°33'0 0.0
2017-Oct-05 05:30N 37°57' E 023°33'0 0.0
2017-Oct-05 05:00N 37°57' E 023°33'0 0.0
2017-Oct-05 04:30N 37°57' E 023°33'0 0.0
2017-Oct-05 04:00N 37°57' E 023°33'0 0.0
2017-Oct-05 03:30N 37°57' E 023°33'0 0.0
2017-Oct-05 03:00N 37°57' E 023°33'0 0.0
2017-Oct-05 02:30N 37°57' E 023°33'0 0.0
2017-Oct-05 02:00N 37°57' E 023°33'0 0.0
2017-Oct-05 01:30N 37°57' E 023°33'0 0.0
2017-Oct-05 01:00N 37°57' E 023°33'0 0.0
2017-Oct-05 00:30N 37°57' E 023°33'0 0.0
2017-Oct-05 00:00N 37°57' E 023°33'0 0.0
2017-Oct-04 23:30N 37°57' E 023°33'0 0.0
2017-Oct-04 23:00N 37°57' E 023°33'0 0.0
2017-Oct-04 22:30N 37°57' E 023°33'0 0.0
2017-Oct-04 22:00N 37°57' E 023°33'0 0.0
2017-Oct-04 21:30N 37°57' E 023°33'0 0.0
2017-Oct-04 21:00N 37°57' E 023°33'0 0.0
2017-Oct-04 20:30N 37°57' E 023°33'0 0.0
2017-Oct-04 20:00N 37°57' E 023°33'0 0.0
2017-Oct-04 19:30N 37°57' E 023°33'0 0.0
2017-Oct-04 19:00N 37°57' E 023°33'0 0.0
2017-Oct-04 18:30N 37°57' E 023°33'0 0.0
2017-Oct-04 18:00N 37°57' E 023°33'0 0.0
2017-Oct-04 17:30N 37°57' E 023°33'0 0.0
2017-Oct-04 17:00N 37°57' E 023°33'0 0.0
2017-Oct-04 16:30N 37°57' E 023°33'0 0.1
2017-Oct-04 16:00N 37°57' E 023°33'3 5.4
2017-Oct-04 15:30N 37°55' E 023°36'0 0.7
2017-Oct-04 15:00N 37°55' E 023°35'1 1.4
2017-Oct-04 14:30N 37°55' E 023°36'4 7.6
2017-Oct-04 14:00N 37°51' E 023°38'5 9.9
2017-Oct-04 13:30N 37°47' E 023°41'55 9.4
2017-Oct-04 07:37N 37°23' E 024°44'1 9.8
2017-Oct-04 07:30N 37°22' E 024°45'5 9.9
2017-Oct-04 07:00N 37°20' E 024°51'510.2
2017-Oct-04 06:30N 37°18' E 024°56'510.0
2017-Oct-04 06:00N 37°15' E 025°02'610.1
2017-Oct-04 05:25N 37°13' E 025°09'410.4
2017-Oct-04 05:00N 37°11' E 025°14'510.0
2017-Oct-04 04:30N 37°09' E 025°19'3 6.9
2017-Oct-04 04:00N 37°06' E 025°22'0 0.0
2017-Oct-04 03:30N 37°06' E 025°22'2 3.3
2017-Oct-04 03:00N 37°06' E 025°20'4 8.5
2017-Oct-04 02:30N 37°02' E 025°18'  
Track history (hours):
 
Tides and Currents Weather Stations Pressure Air Temp Water Temp Dewpoint Dewpoint Depression Visibility Wind Speed Wind Dir Waves Ship Positions

Chrisanthi

Last reported at 2017-Oct-05 12:41 UTC. Time now 2017-Oct-18 15:05 UTC.
Position N 37°57' E 023°33'.
Warning: this ship's position is 13 days out of date.

Length 56 m; draft 3.9 m.

Type: Ship (hazmat cat A). MMSI: 237009100.

Date/timePositionNaut miles runAvg speedWind from/ knotsBaromVisibWave heightAir tempDewpointWater temp
2017-Oct-05 12:41N 37°57' E 023°33'0 0.4
2017-Oct-05 12:30N 37°57' E 023°33'0 0.1
2017-Oct-05 12:00N 37°57' E 023°33'0 0.0
2017-Oct-05 11:30N 37°57' E 023°33'0 0.0
2017-Oct-05 11:00N 37°57' E 023°33'0 0.1
2017-Oct-05 10:30N 37°57' E 023°33'0 0.0
2017-Oct-05 10:00N 37°57' E 023°33'0 0.2
2017-Oct-05 09:30N 37°57' E 023°33'0 0.0
2017-Oct-05 09:00N 37°57' E 023°33'0 0.0
2017-Oct-05 08:30N 37°57' E 023°33'0 0.0
2017-Oct-05 08:00N 37°57' E 023°33'0 0.0
2017-Oct-05 07:30N 37°57' E 023°33'0 0.0
2017-Oct-05 07:00N 37°57' E 023°33'0 0.0
2017-Oct-05 06:30N 37°57' E 023°33'0 0.0
2017-Oct-05 06:00N 37°57' E 023°33'0 0.0
2017-Oct-05 05:30N 37°57' E 023°33'0 0.0
2017-Oct-05 05:00N 37°57' E 023°33'0 0.0
2017-Oct-05 04:30N 37°57' E 023°33'0 0.0
2017-Oct-05 04:00N 37°57' E 023°33'0 0.0
2017-Oct-05 03:30N 37°57' E 023°33'0 0.0
2017-Oct-05 03:00N 37°57' E 023°33'0 0.0
2017-Oct-05 02:30N 37°57' E 023°33'0 0.0
2017-Oct-05 02:00N 37°57' E 023°33'0 0.0
2017-Oct-05 01:30N 37°57' E 023°33'0 0.0
2017-Oct-05 01:00N 37°57' E 023°33'0 0.0
2017-Oct-05 00:30N 37°57' E 023°33'0 0.0
2017-Oct-05 00:00N 37°57' E 023°33'0 0.0
2017-Oct-04 23:30N 37°57' E 023°33'0 0.0
2017-Oct-04 23:00N 37°57' E 023°33'0 0.0
2017-Oct-04 22:30N 37°57' E 023°33'0 0.0
2017-Oct-04 22:00N 37°57' E 023°33'0 0.0
2017-Oct-04 21:30N 37°57' E 023°33'0 0.0
2017-Oct-04 21:00N 37°57' E 023°33'0 0.0
2017-Oct-04 20:30N 37°57' E 023°33'0 0.0
2017-Oct-04 20:00N 37°57' E 023°33'0 0.0
2017-Oct-04 19:30N 37°57' E 023°33'0 0.0
2017-Oct-04 19:00N 37°57' E 023°33'0 0.0
2017-Oct-04 18:30N 37°57' E 023°33'0 0.0
2017-Oct-04 18:00N 37°57' E 023°33'0 0.0
2017-Oct-04 17:30N 37°57' E 023°33'0 0.0
2017-Oct-04 17:00N 37°57' E 023°33'0 0.0
2017-Oct-04 16:30N 37°57' E 023°33'0 0.1
2017-Oct-04 16:00N 37°57' E 023°33'3 5.4
2017-Oct-04 15:30N 37°55' E 023°36'0 0.7
2017-Oct-04 15:00N 37°55' E 023°35'1 1.4
2017-Oct-04 14:30N 37°55' E 023°36'4 7.6
2017-Oct-04 14:00N 37°51' E 023°38'5 9.9
2017-Oct-04 13:30N 37°47' E 023°41'55 9.4
2017-Oct-04 07:37N 37°23' E 024°44'1 9.8
2017-Oct-04 07:30N 37°22' E 024°45'5 9.9
2017-Oct-04 07:00N 37°20' E 024°51'510.2
2017-Oct-04 06:30N 37°18' E 024°56'510.0
2017-Oct-04 06:00N 37°15' E 025°02'610.1
2017-Oct-04 05:25N 37°13' E 025°09'410.4
2017-Oct-04 05:00N 37°11' E 025°14'510.0
2017-Oct-04 04:30N 37°09' E 025°19'3 6.9
2017-Oct-04 04:00N 37°06' E 025°22'0 0.0
2017-Oct-04 03:30N 37°06' E 025°22'2 3.3
2017-Oct-04 03:00N 37°06' E 025°20'4 8.5
2017-Oct-04 02:30N 37°02' E 025°18'  

Dump ship's entire track history